States of Jersey

Home Log in

Channel Islands Terminal Aerodrome Forecasts (TAFs) issued Tuesday, 19 September 2017

Jersey Airport - EGJJ

191702Z 1918/2003 28008KT 9999 FEW020 TEMPO 1921/2003 BKN019 BECMG 2000/2003 22011KT=

Guernsey Airport - EGJB

191702Z 1918/2003 28008KT 9999 FEW020 TEMPO 1921/2003 BKN019 BECMG 2000/2003 22011KT=

Alderney Airport - EGJA

191702Z 1918/2003 Nil